sensor_id;sensor_type;location;lat;lon;timestamp;pressure;altitude;pressure_sealevel;temperature;humidity
70370;BME280;57790;51.356;-2.906;2023-07-24T00:01:43;100477.63;;;21.31;100.00
70370;BME280;57790;51.356;-2.906;2023-07-24T00:04:44;100478.31;;;21.26;100.00
70370;BME280;57790;51.356;-2.906;2023-07-24T00:07:44;100486.19;;;21.28;100.00
70370;BME280;57790;51.356;-2.906;2023-07-24T00:10:44;100474.19;;;21.24;100.00
70370;BME280;57790;51.356;-2.906;2023-07-24T00:13:45;100478.56;;;21.25;100.00
70370;BME280;57790;51.356;-2.906;2023-07-24T00:16:45;100463.00;;;21.27;100.00
70370;BME280;57790;51.356;-2.906;2023-07-24T00:19:45;100470.94;;;21.22;100.00
70370;BME280;57790;51.356;-2.906;2023-07-24T00:22:46;100467.31;;;21.16;100.00
70370;BME280;57790;51.356;-2.906;2023-07-24T00:25:46;100463.56;;;21.17;100.00
70370;BME280;57790;51.356;-2.906;2023-07-24T00:28:47;100455.47;;;21.17;100.00
70370;BME280;57790;51.356;-2.906;2023-07-24T00:31:47;100457.59;;;21.15;100.00
70370;BME280;57790;51.356;-2.906;2023-07-24T00:34:47;100454.91;;;21.15;100.00
70370;BME280;57790;51.356;-2.906;2023-07-24T00:37:48;100454.53;;;21.12;100.00
70370;BME280;57790;51.356;-2.906;2023-07-24T00:40:48;100451.03;;;21.11;100.00
70370;BME280;57790;51.356;-2.906;2023-07-24T00:43:50;100457.22;;;21.12;100.00
70370;BME280;57790;51.356;-2.906;2023-07-24T00:46:50;100448.22;;;21.06;100.00
70370;BME280;57790;51.356;-2.906;2023-07-24T00:49:50;100445.06;;;20.97;100.00
70370;BME280;57790;51.356;-2.906;2023-07-24T00:52:51;100436.66;;;20.94;100.00
70370;BME280;57790;51.356;-2.906;2023-07-24T00:55:51;100445.06;;;20.97;100.00
70370;BME280;57790;51.356;-2.906;2023-07-24T00:58:54;100432.91;;;20.95;100.00
70370;BME280;57790;51.356;-2.906;2023-07-24T01:01:56;100439.09;;;20.95;100.00
70370;BME280;57790;51.356;-2.906;2023-07-24T01:04:56;100435.84;;;20.93;100.00
70370;BME280;57790;51.356;-2.906;2023-07-24T01:07:57;100430.69;;;20.92;100.00
70370;BME280;57790;51.356;-2.906;2023-07-24T01:11:02;100435.97;;;20.87;100.00
70370;BME280;57790;51.356;-2.906;2023-07-24T01:14:21;100432.72;;;20.85;100.00
70370;BME280;57790;51.356;-2.906;2023-07-24T01:17:24;100435.84;;;20.82;100.00
70370;BME280;57790;51.356;-2.906;2023-07-24T01:20:26;100431.91;;;20.84;100.00
70370;BME280;57790;51.356;-2.906;2023-07-24T01:26:50;100419.59;;;20.76;100.00
70370;BME280;57790;51.356;-2.906;2023-07-24T01:29:51;100419.84;;;20.75;100.00
70370;BME280;57790;51.356;-2.906;2023-07-24T01:32:51;100419.59;;;20.76;100.00
70370;BME280;57790;51.356;-2.906;2023-07-24T01:35:55;100415.34;;;20.80;100.00
70370;BME280;57790;51.356;-2.906;2023-07-24T01:38:57;100416.06;;;20.76;100.00
70370;BME280;57790;51.356;-2.906;2023-07-24T01:41:58;100419.50;;;20.71;100.00
70370;BME280;57790;51.356;-2.906;2023-07-24T01:44:59;100419.03;;;20.63;100.00
70370;BME280;57790;51.356;-2.906;2023-07-24T01:47:59;100412.47;;;20.59;100.00
70370;BME280;57790;51.356;-2.906;2023-07-24T01:51:00;100410.25;;;20.56;100.00
70370;BME280;57790;51.356;-2.906;2023-07-24T01:54:00;100413.88;;;20.49;100.00
70370;BME280;57790;51.356;-2.906;2023-07-24T01:57:00;100413.78;;;20.44;100.00
70370;BME280;57790;51.356;-2.906;2023-07-24T02:00:01;100420.00;;;20.45;100.00
70370;BME280;57790;51.356;-2.906;2023-07-24T02:03:01;100417.78;;;20.42;100.00
70370;BME280;57790;51.356;-2.906;2023-07-24T02:06:01;100415.91;;;20.42;100.00
70370;BME280;57790;51.356;-2.906;2023-07-24T02:09:02;100415.72;;;20.37;100.00
70370;BME280;57790;51.356;-2.906;2023-07-24T02:12:02;100416.22;;;20.34;100.00
70370;BME280;57790;51.356;-2.906;2023-07-24T02:15:03;100418.78;;;20.29;100.00
70370;BME280;57790;51.356;-2.906;2023-07-24T02:18:04;100420.09;;;20.27;100.00
70370;BME280;57790;51.356;-2.906;2023-07-24T02:21:04;100415.97;;;20.24;100.00
70370;BME280;57790;51.356;-2.906;2023-07-24T02:24:05;100422.16;;;20.25;100.00
70370;BME280;57790;51.356;-2.906;2023-07-24T02:27:05;100416.56;;;20.26;100.00
70370;BME280;57790;51.356;-2.906;2023-07-24T02:30:06;100417.25;;;20.21;100.00
70370;BME280;57790;51.356;-2.906;2023-07-24T02:33:06;100412.34;;;20.18;100.00
70370;BME280;57790;51.356;-2.906;2023-07-24T02:36:07;100412.34;;;20.18;100.00
70370;BME280;57790;51.356;-2.906;2023-07-24T02:39:07;100412.25;;;20.13;100.00
70370;BME280;57790;51.356;-2.906;2023-07-24T02:42:08;100410.47;;;20.19;100.00
70370;BME280;57790;51.356;-2.906;2023-07-24T02:45:09;100409.53;;;20.13;100.00
70370;BME280;57790;51.356;-2.906;2023-07-24T02:48:11;100412.34;;;20.18;100.00
70370;BME280;57790;51.356;-2.906;2023-07-24T02:51:11;100410.47;;;20.19;100.00
70370;BME280;57790;51.356;-2.906;2023-07-24T02:54:11;100410.13;;;20.15;100.00
70370;BME280;57790;51.356;-2.906;2023-07-24T02:57:12;100415.75;;;20.14;100.00
70370;BME280;57790;51.356;-2.906;2023-07-24T03:00:12;100410.22;;;20.09;100.00
70370;BME280;57790;51.356;-2.906;2023-07-24T03:03:13;100419.25;;;20.03;100.00
70370;BME280;57790;51.356;-2.906;2023-07-24T03:06:13;100422.41;;;20.00;100.00
70370;BME280;57790;51.356;-2.906;2023-07-24T03:09:14;100428.94;;;20.04;100.00
70370;BME280;57790;51.356;-2.906;2023-07-24T03:12:14;100415.97;;;20.01;100.00
70370;BME280;57790;51.356;-2.906;2023-07-24T03:15:14;100408.94;;;20.00;100.00
70370;BME280;57790;51.356;-2.906;2023-07-24T03:18:15;100409.19;;;19.98;100.00
70370;BME280;57790;51.356;-2.906;2023-07-24T03:21:16;100411.06;;;19.98;100.00
70370;BME280;57790;51.356;-2.906;2023-07-24T03:24:17;100412.94;;;19.97;100.00
70370;BME280;57790;51.356;-2.906;2023-07-24T03:27:17;100418.88;;;19.87;100.00
70370;BME280;57790;51.356;-2.906;2023-07-24T03:30:17;100413.50;;;19.87;100.00
70370;BME280;57790;51.356;-2.906;2023-07-24T03:33:18;100409.97;;;19.87;100.00
70370;BME280;57790;51.356;-2.906;2023-07-24T03:36:18;100416.19;;;19.87;100.00
70370;BME280;57790;51.356;-2.906;2023-07-24T03:39:19;100418.28;;;19.85;100.00
70370;BME280;57790;51.356;-2.906;2023-07-24T03:42:27;100412.56;;;19.82;100.00
70370;BME280;57790;51.356;-2.906;2023-07-24T03:45:27;100416.25;;;19.81;100.00
70370;BME280;57790;51.356;-2.906;2023-07-24T03:48:28;100423.75;;;19.79;100.00
70370;BME280;57790;51.356;-2.906;2023-07-24T03:51:28;100423.16;;;19.77;100.00
70370;BME280;57790;51.356;-2.906;2023-07-24T03:54:28;100426.56;;;19.72;100.00
70370;BME280;57790;51.356;-2.906;2023-07-24T03:57:29;100427.38;;;19.73;100.00
70370;BME280;57790;51.356;-2.906;2023-07-24T04:00:29;100431.78;;;19.67;100.00
70370;BME280;57790;51.356;-2.906;2023-07-24T04:03:30;100428.91;;;19.69;100.00
70370;BME280;57790;51.356;-2.906;2023-07-24T04:06:30;100431.78;;;19.67;100.00
70370;BME280;57790;51.356;-2.906;2023-07-24T04:09:30;100423.94;;;19.66;100.00
70370;BME280;57790;51.356;-2.906;2023-07-24T04:12:31;100428.16;;;19.61;100.00
70370;BME280;57790;51.356;-2.906;2023-07-24T04:15:31;100434.00;;;19.58;100.00
70370;BME280;57790;51.356;-2.906;2023-07-24T04:18:32;100426.16;;;19.57;100.00
70370;BME280;57790;51.356;-2.906;2023-07-24T04:21:32;100431.34;;;19.52;100.00
70370;BME280;57790;51.356;-2.906;2023-07-24T04:24:32;100437.19;;;19.49;100.00
70370;BME280;57790;51.356;-2.906;2023-07-24T04:27:33;100435.34;;;19.49;100.00
70370;BME280;57790;51.356;-2.906;2023-07-24T04:30:33;100425.03;;;19.46;100.00
70370;BME280;57790;51.356;-2.906;2023-07-24T04:33:33;100434.16;;;19.45;100.00
70370;BME280;57790;51.356;-2.906;2023-07-24T04:36:34;100432.75;;;19.43;100.00
70370;BME280;57790;51.356;-2.906;2023-07-24T04:39:34;100431.94;;;19.42;100.00
70370;BME280;57790;51.356;-2.906;2023-07-24T04:42:35;100431.78;;;19.37;100.00
70370;BME280;57790;51.356;-2.906;2023-07-24T04:45:35;100434.47;;;19.37;100.00
70370;BME280;57790;51.356;-2.906;2023-07-24T04:48:35;100432.00;;;19.36;100.00
70370;BME280;57790;51.356;-2.906;2023-07-24T04:51:36;100438.44;;;19.35;100.00
70370;BME280;57790;51.356;-2.906;2023-07-24T04:54:37;100436.78;;;19.33;100.00
70370;BME280;57790;51.356;-2.906;2023-07-24T04:57:37;100431.88;;;19.30;100.00
70370;BME280;57790;51.356;-2.906;2023-07-24T05:00:37;100435.03;;;19.27;100.00
70370;BME280;57790;51.356;-2.906;2023-07-24T05:03:38;100441.69;;;19.25;100.00
70370;BME280;57790;51.356;-2.906;2023-07-24T05:06:38;100443.09;;;19.27;100.00
70370;BME280;57790;51.356;-2.906;2023-07-24T05:09:39;100450.34;;;19.27;100.00
70370;BME280;57790;51.356;-2.906;2023-07-24T05:12:42;100455.13;;;19.25;100.00
70370;BME280;57790;51.356;-2.906;2023-07-24T05:15:43;100455.31;;;19.23;100.00
70370;BME280;57790;51.356;-2.906;2023-07-24T05:18:43;100457.19;;;19.23;100.00
70370;BME280;57790;51.356;-2.906;2023-07-24T05:21:43;100463.59;;;19.22;100.00
70370;BME280;57790;51.356;-2.906;2023-07-24T05:24:46;100469.00;;;19.22;100.00
70370;BME280;57790;51.356;-2.906;2023-07-24T05:27:47;100474.13;;;19.23;100.00
70370;BME280;57790;51.356;-2.906;2023-07-24T05:30:47;100471.44;;;19.23;100.00
70370;BME280;57790;51.356;-2.906;2023-07-24T05:33:47;100470.63;;;19.23;100.00
70370;BME280;57790;51.356;-2.906;2023-07-24T05:36:48;100477.63;;;19.24;100.00
70370;BME280;57790;51.356;-2.906;2023-07-24T05:39:48;100475.63;;;19.19;100.00
70370;BME280;57790;51.356;-2.906;2023-07-24T05:42:49;100481.56;;;19.10;100.00
70370;BME280;57790;51.356;-2.906;2023-07-24T05:45:53;100492.97;;;19.05;100.00
70370;BME280;57790;51.356;-2.906;2023-07-24T05:48:53;100487.22;;;19.01;100.00
70370;BME280;57790;51.356;-2.906;2023-07-24T05:51:54;100494.31;;;18.96;100.00
70370;BME280;57790;51.356;-2.906;2023-07-24T05:54:54;100503.41;;;18.95;100.00
70370;BME280;57790;51.356;-2.906;2023-07-24T05:57:55;100502.06;;;18.86;100.00
70370;BME280;57790;51.356;-2.906;2023-07-24T06:00:55;100499.63;;;18.84;100.00
70370;BME280;57790;51.356;-2.906;2023-07-24T06:03:56;100506.25;;;18.82;100.00
70370;BME280;57790;51.356;-2.906;2023-07-24T06:06:56;100510.81;;;18.81;100.00
70370;BME280;57790;51.356;-2.906;2023-07-24T06:09:56;100519.69;;;18.82;100.00
70370;BME280;57790;51.356;-2.906;2023-07-24T06:12:57;100517.66;;;18.77;100.00
70370;BME280;57790;51.356;-2.906;2023-07-24T06:15:57;100521.81;;;18.73;100.00
70370;BME280;57790;51.356;-2.906;2023-07-24T06:18:57;100524.38;;;18.68;100.00
70370;BME280;57790;51.356;-2.906;2023-07-24T06:21:58;100528.28;;;18.65;100.00
70370;BME280;57790;51.356;-2.906;2023-07-24T06:24:58;100532.44;;;18.61;100.00
70370;BME280;57790;51.356;-2.906;2023-07-24T06:28:01;100531.22;;;18.57;100.00
70370;BME280;57790;51.356;-2.906;2023-07-24T06:31:01;100535.56;;;18.58;100.00
70370;BME280;57790;51.356;-2.906;2023-07-24T06:34:02;100541.38;;;18.55;100.00
70370;BME280;57790;51.356;-2.906;2023-07-24T06:37:02;100533.31;;;18.55;100.00
70370;BME280;57790;51.356;-2.906;2023-07-24T06:40:03;100539.75;;;18.54;100.00
70370;BME280;57790;51.356;-2.906;2023-07-24T06:43:04;100543.25;;;18.55;100.00
70370;BME280;57790;51.356;-2.906;2023-07-24T06:46:04;100536.00;;;18.55;100.00
70370;BME280;57790;51.356;-2.906;2023-07-24T06:49:05;100541.00;;;18.52;100.00
70370;BME280;57790;51.356;-2.906;2023-07-24T06:52:05;100549.66;;;18.54;100.00
70370;BME280;57790;51.356;-2.906;2023-07-24T06:55:06;100546.38;;;18.52;100.00
70370;BME280;57790;51.356;-2.906;2023-07-24T06:58:07;100548.84;;;18.53;100.00
70370;BME280;57790;51.356;-2.906;2023-07-24T07:01:07;100549.88;;;18.52;100.00
70370;BME280;57790;51.356;-2.906;2023-07-24T07:04:07;100557.94;;;18.52;100.00
70370;BME280;57790;51.356;-2.906;2023-07-24T07:07:08;100556.69;;;18.48;100.00
70370;BME280;57790;51.356;-2.906;2023-07-24T07:10:08;100558.78;;;18.46;100.00
70370;BME280;57790;51.356;-2.906;2023-07-24T07:13:09;100562.91;;;18.49;100.00
70370;BME280;57790;51.356;-2.906;2023-07-24T07:16:09;100567.66;;;18.47;100.00
70370;BME280;57790;51.356;-2.906;2023-07-24T07:19:10;100576.38;;;18.42;100.00
70370;BME280;57790;51.356;-2.906;2023-07-24T07:22:10;100574.97;;;18.39;100.00
70370;BME280;57790;51.356;-2.906;2023-07-24T07:25:11;100580.94;;;18.41;100.00
70370;BME280;57790;51.356;-2.906;2023-07-24T07:28:12;100586.31;;;18.41;100.00
70370;BME280;57790;51.356;-2.906;2023-07-24T07:31:13;100594.13;;;18.43;100.00
70370;BME280;57790;51.356;-2.906;2023-07-24T07:34:13;100594.56;;;18.40;100.00
70370;BME280;57790;51.356;-2.906;2023-07-24T07:37:14;100591.88;;;18.40;100.00
70370;BME280;57790;51.356;-2.906;2023-07-24T07:40:14;100605.31;;;18.40;100.00
70370;BME280;57790;51.356;-2.906;2023-07-24T07:43:14;100601.81;;;18.39;100.00
70370;BME280;57790;51.356;-2.906;2023-07-24T07:46:15;100610.09;;;18.38;100.00
70370;BME280;57790;51.356;-2.906;2023-07-24T07:49:15;100612.94;;;18.36;100.00
70370;BME280;57790;51.356;-2.906;2023-07-24T07:52:15;100620.00;;;18.37;100.00
70370;BME280;57790;51.356;-2.906;2023-07-24T07:55:18;100612.94;;;18.36;100.00
70370;BME280;57790;51.356;-2.906;2023-07-24T07:58:19;100624.50;;;18.37;100.00
70370;BME280;57790;51.356;-2.906;2023-07-24T08:01:19;100623.69;;;18.36;100.00
70370;BME280;57790;51.356;-2.906;2023-07-24T08:04:20;100627.03;;;18.32;100.00
70370;BME280;57790;51.356;-2.906;2023-07-24T08:07:20;100634.47;;;18.30;100.00
70370;BME280;57790;51.356;-2.906;2023-07-24T08:10:20;100626.44;;;18.30;100.00
70370;BME280;57790;51.356;-2.906;2023-07-24T08:13:21;100634.69;;;18.28;100.00
70370;BME280;57790;51.356;-2.906;2023-07-24T08:16:21;100636.56;;;18.28;100.00
70370;BME280;57790;51.356;-2.906;2023-07-24T08:19:21;100638.19;;;18.29;100.00
70370;BME280;57790;51.356;-2.906;2023-07-24T08:22:22;100646.09;;;18.17;100.00
70370;BME280;57790;51.356;-2.906;2023-07-24T08:25:22;100651.47;;;18.24;100.00
70370;BME280;57790;51.356;-2.906;2023-07-24T08:28:23;100656.03;;;18.17;100.00
70370;BME280;57790;51.356;-2.906;2023-07-24T08:31:23;100661.44;;;18.10;100.00
70370;BME280;57790;51.356;-2.906;2023-07-24T08:34:24;100665.75;;;18.11;100.00
70370;BME280;57790;51.356;-2.906;2023-07-24T08:37:24;100668.22;;;18.12;100.00
70370;BME280;57790;51.356;-2.906;2023-07-24T08:40:25;100679.19;;;18.11;100.00
70370;BME280;57790;51.356;-2.906;2023-07-24T08:43:25;100669.06;;;18.13;100.00
70370;BME280;57790;51.356;-2.906;2023-07-24T08:46:27;100677.53;;;18.10;100.00
70370;BME280;57790;51.356;-2.906;2023-07-24T08:49:29;100680.44;;;18.08;100.00
70370;BME280;57790;51.356;-2.906;2023-07-24T08:52:31;100685.78;;;18.08;100.00
70370;BME280;57790;51.356;-2.906;2023-07-24T08:55:31;100692.44;;;17.99;100.00
70370;BME280;57790;51.356;-2.906;2023-07-24T08:58:32;100693.44;;;18.05;100.00
70370;BME280;57790;51.356;-2.906;2023-07-24T09:01:33;100690.34;;;18.01;100.00
70370;BME280;57790;51.356;-2.906;2023-07-24T09:04:33;100690.78;;;17.98;100.00
70370;BME280;57790;51.356;-2.906;2023-07-24T09:07:35;100707.31;;;17.95;100.00
70370;BME280;57790;51.356;-2.906;2023-07-24T09:10:36;100699.44;;;17.94;100.00
70370;BME280;57790;51.356;-2.906;2023-07-24T09:13:38;100701.53;;;17.92;100.00
70370;BME280;57790;51.356;-2.906;2023-07-24T09:16:38;100696.97;;;17.92;100.00
70370;BME280;57790;51.356;-2.906;2023-07-24T09:19:39;100707.53;;;17.87;100.00
70370;BME280;57790;51.356;-2.906;2023-07-24T09:22:48;100706.06;;;17.91;100.00
70370;BME280;57790;51.356;-2.906;2023-07-24T09:25:49;100714.72;;;17.93;100.00
70370;BME280;57790;51.356;-2.906;2023-07-24T09:28:53;100713.88;;;17.99;100.00
70370;BME280;57790;51.356;-2.906;2023-07-24T09:31:54;100714.88;;;18.05;100.00
70370;BME280;57790;51.356;-2.906;2023-07-24T09:34:54;100722.09;;;18.11;100.00
70370;BME280;57790;51.356;-2.906;2023-07-24T09:38:05;100720.25;;;18.11;100.00
70370;BME280;57790;51.356;-2.906;2023-07-24T09:41:07;100722.09;;;18.11;100.00
70370;BME280;57790;51.356;-2.906;2023-07-24T09:44:07;100721.03;;;18.25;100.00
70370;BME280;57790;51.356;-2.906;2023-07-24T09:47:08;100723.22;;;18.35;100.00
70370;BME280;57790;51.356;-2.906;2023-07-24T09:50:08;100724.88;;;18.36;100.00
70370;BME280;57790;51.356;-2.906;2023-07-24T09:53:20;100736.25;;;18.38;100.00
70370;BME280;57790;51.356;-2.906;2023-07-24T09:56:22;100737.03;;;18.45;100.00
70370;BME280;57790;51.356;-2.906;2023-07-24T09:59:24;100742.81;;;18.42;100.00
70370;BME280;57790;51.356;-2.906;2023-07-24T10:02:28;100742.19;;;18.47;100.00
70370;BME280;57790;51.356;-2.906;2023-07-24T10:05:29;100752.69;;;18.48;100.00
70370;BME280;57790;51.356;-2.906;2023-07-24T10:08:30;100748.56;;;18.52;100.00
70370;BME280;57790;51.356;-2.906;2023-07-24T10:11:31;100755.75;;;18.58;100.00
70370;BME280;57790;51.356;-2.906;2023-07-24T10:14:31;100758.66;;;18.57;100.00
70370;BME280;57790;51.356;-2.906;2023-07-24T10:17:40;100758.41;;;18.65;100.00
70370;BME280;57790;51.356;-2.906;2023-07-24T10:20:41;100762.34;;;18.69;100.00
70370;BME280;57790;51.356;-2.906;2023-07-24T10:23:44;100769.16;;;18.71;100.00
70370;BME280;57790;51.356;-2.906;2023-07-24T10:26:46;100764.38;;;18.73;100.00
70370;BME280;57790;51.356;-2.906;2023-07-24T10:30:04;100769.31;;;18.77;100.00
70370;BME280;57790;51.356;-2.906;2023-07-24T10:33:21;100765.81;;;18.76;100.00
70370;BME280;57790;51.356;-2.906;2023-07-24T10:36:22;100775.72;;;18.76;100.00
70370;BME280;57790;51.356;-2.906;2023-07-24T10:39:23;100782.31;;;18.80;100.00
70370;BME280;57790;51.356;-2.906;2023-07-24T10:42:24;100786.63;;;18.87;100.00
70370;BME280;57790;51.356;-2.906;2023-07-24T10:45:24;100784.75;;;18.88;100.00
70370;BME280;57790;51.356;-2.906;2023-07-24T10:48:25;100794.25;;;18.90;100.00
70370;BME280;57790;51.356;-2.906;2023-07-24T10:51:26;100797.13;;;18.89;100.00
70370;BME280;57790;51.356;-2.906;2023-07-24T10:54:26;100796.09;;;18.90;100.00
70370;BME280;57790;51.356;-2.906;2023-07-24T10:57:27;100806.59;;;18.98;100.00
70370;BME280;57790;51.356;-2.906;2023-07-24T11:00:28;100804.97;;;18.97;100.00
70370;BME280;57790;51.356;-2.906;2023-07-24T11:03:28;100810.94;;;18.99;100.00
70370;BME280;57790;51.356;-2.906;2023-07-24T11:06:28;100812.97;;;19.03;100.00
70370;BME280;57790;51.356;-2.906;2023-07-24T11:09:36;100805.50;;;19.06;100.00
70370;BME280;57790;51.356;-2.906;2023-07-24T11:12:38;100817.28;;;19.11;100.00
70370;BME280;57790;51.356;-2.906;2023-07-24T11:15:39;100816.00;;;19.14;100.00
70370;BME280;57790;51.356;-2.906;2023-07-24T11:18:46;100812.88;;;19.17;100.00
70370;BME280;57790;51.356;-2.906;2023-07-24T11:21:47;100828.34;;;19.21;100.00
70370;BME280;57790;51.356;-2.906;2023-07-24T11:24:47;100828.13;;;19.23;100.00
70370;BME280;57790;51.356;-2.906;2023-07-24T11:27:48;100823.16;;;19.26;100.00
70370;BME280;57790;51.356;-2.906;2023-07-24T11:30:48;100832.88;;;19.27;100.00
70370;BME280;57790;51.356;-2.906;2023-07-24T11:33:49;100836.34;;;19.35;100.00
70370;BME280;57790;51.356;-2.906;2023-07-24T11:36:50;100827.81;;;19.38;100.00
70370;BME280;57790;51.356;-2.906;2023-07-24T11:40:02;100839.81;;;19.42;100.00
70370;BME280;57790;51.356;-2.906;2023-07-24T11:43:04;100843.94;;;19.44;100.00
70370;BME280;57790;51.356;-2.906;2023-07-24T11:46:05;100842.66;;;19.47;100.00
70370;BME280;57790;51.356;-2.906;2023-07-24T11:49:05;100850.28;;;19.50;100.00
70370;BME280;57790;51.356;-2.906;2023-07-24T11:52:06;100854.41;;;19.52;100.00
70370;BME280;57790;51.356;-2.906;2023-07-24T11:55:07;100858.56;;;19.55;100.00
70370;BME280;57790;51.356;-2.906;2023-07-24T11:58:08;100858.56;;;19.55;100.00
70370;BME280;57790;51.356;-2.906;2023-07-24T12:01:08;100854.84;;;19.56;100.00
70370;BME280;57790;51.356;-2.906;2023-07-24T12:04:09;100857.53;;;19.56;100.00
70370;BME280;57790;51.356;-2.906;2023-07-24T12:07:09;100862.69;;;19.57;100.00
70370;BME280;57790;51.356;-2.906;2023-07-24T12:10:10;100856.63;;;19.62;100.00
70370;BME280;57790;51.356;-2.906;2023-07-24T12:13:10;100868.59;;;19.66;100.00
70370;BME280;57790;51.356;-2.906;2023-07-24T12:16:11;100865.72;;;19.68;100.00
70370;BME280;57790;51.356;-2.906;2023-07-24T12:19:11;100873.78;;;19.68;100.00
70370;BME280;57790;51.356;-2.906;2023-07-24T12:22:12;100866.94;;;19.65;100.00
70370;BME280;57790;51.356;-2.906;2023-07-24T12:25:12;100879.53;;;19.71;100.00
70370;BME280;57790;51.356;-2.906;2023-07-24T12:28:13;100870.81;;;19.76;100.00
70370;BME280;57790;51.356;-2.906;2023-07-24T12:31:14;100883.66;;;19.74;100.00
70370;BME280;57790;51.356;-2.906;2023-07-24T12:34:14;100881.19;;;19.72;100.00
70370;BME280;57790;51.356;-2.906;2023-07-24T12:37:15;100884.63;;;19.79;100.00
70370;BME280;57790;51.356;-2.906;2023-07-24T12:40:15;100885.75;;;19.72;100.00
70370;BME280;57790;51.356;-2.906;2023-07-24T12:43:15;100887.56;;;19.78;100.00
70370;BME280;57790;51.356;-2.906;2023-07-24T12:46:16;100896.06;;;19.75;100.00
70370;BME280;57790;51.356;-2.906;2023-07-24T12:49:16;100892.56;;;19.74;100.00
70370;BME280;57790;51.356;-2.906;2023-07-24T12:52:17;100904.75;;;19.77;100.00
70370;BME280;57790;51.356;-2.906;2023-07-24T12:55:17;100910.78;;;19.72;100.00
70370;BME280;57790;51.356;-2.906;2023-07-24T12:58:18;100899.81;;;19.74;100.00
70370;BME280;57790;51.356;-2.906;2023-07-24T13:01:18;100897.34;;;19.72;100.00
70370;BME280;57790;51.356;-2.906;2023-07-24T13:04:19;100902.94;;;19.71;100.00
70370;BME280;57790;51.356;-2.906;2023-07-24T13:07:20;100899.41;;;19.70;100.00
70370;BME280;57790;51.356;-2.906;2023-07-24T13:10:20;100908.69;;;19.74;100.00
70370;BME280;57790;51.356;-2.906;2023-07-24T13:13:21;100911.44;;;19.68;100.00
70370;BME280;57790;51.356;-2.906;2023-07-24T13:16:21;100915.13;;;19.73;100.00
70370;BME280;57790;51.356;-2.906;2023-07-24T13:19:22;100914.16;;;19.68;100.00
70370;BME280;57790;51.356;-2.906;2023-07-24T13:22:22;100911.00;;;19.71;100.00
70370;BME280;57790;51.356;-2.906;2023-07-24T13:25:23;100921.53;;;19.72;100.00
70370;BME280;57790;51.356;-2.906;2023-07-24T13:28:23;100919.69;;;19.73;100.00
70370;BME280;57790;51.356;-2.906;2023-07-24T13:31:23;100914.91;;;19.75;100.00
70370;BME280;57790;51.356;-2.906;2023-07-24T13:34:24;100914.69;;;19.76;100.00
70370;BME280;57790;51.356;-2.906;2023-07-24T13:37:25;100899.41;;;19.70;100.00
70370;BME280;57790;51.356;-2.906;2023-07-24T13:40:26;100911.84;;;19.71;100.00
70370;BME280;57790;51.356;-2.906;2023-07-24T13:43:26;100914.31;;;19.73;100.00
70370;BME280;57790;51.356;-2.906;2023-07-24T13:46:27;100921.34;;;19.67;100.00
70370;BME280;57790;51.356;-2.906;2023-07-24T13:49:27;100927.25;;;19.57;100.00
70370;BME280;57790;51.356;-2.906;2023-07-24T13:52:28;100934.69;;;19.55;100.00
70370;BME280;57790;51.356;-2.906;2023-07-24T13:55:28;100933.88;;;19.48;100.00
70370;BME280;57790;51.356;-2.906;2023-07-24T13:58:29;100936.94;;;19.52;100.00
70370;BME280;57790;51.356;-2.906;2023-07-24T14:01:29;100935.06;;;19.52;100.00
70370;BME280;57790;51.356;-2.906;2023-07-24T14:04:29;100935.53;;;19.56;100.00
70370;BME280;57790;51.356;-2.906;2023-07-24T14:07:30;100935.31;;;19.51;100.00
70370;BME280;57790;51.356;-2.906;2023-07-24T14:10:30;100937.22;;;19.44;100.00
70370;BME280;57790;51.356;-2.906;2023-07-24T14:13:30;100941.78;;;19.37;100.00
70370;BME280;57790;51.356;-2.906;2023-07-24T14:16:31;100929.59;;;19.41;100.00
70370;BME280;57790;51.356;-2.906;2023-07-24T14:19:31;100939.75;;;19.39;100.00
70370;BME280;57790;51.356;-2.906;2023-07-24T14:22:32;100933.56;;;19.31;100.00
70370;BME280;57790;51.356;-2.906;2023-07-24T14:25:32;100941.84;;;19.30;100.00
70370;BME280;57790;51.356;-2.906;2023-07-24T14:28:33;100942.06;;;19.28;100.00
70370;BME280;57790;51.356;-2.906;2023-07-24T14:31:33;100942.28;;;19.27;100.00
70370;BME280;57790;51.356;-2.906;2023-07-24T14:34:33;100939.53;;;19.33;100.00
70370;BME280;57790;51.356;-2.906;2023-07-24T14:37:34;100945.31;;;19.37;100.00
70370;BME280;57790;51.356;-2.906;2023-07-24T14:40:34;100940.56;;;19.39;100.00
70370;BME280;57790;51.356;-2.906;2023-07-24T14:43:34;100948.19;;;19.42;100.00
70370;BME280;57790;51.356;-2.906;2023-07-24T14:46:35;100940.50;;;19.46;100.00
70370;BME280;57790;51.356;-2.906;2023-07-24T14:49:35;100951.28;;;19.46;100.00
70370;BME280;57790;51.356;-2.906;2023-07-24T14:52:35;100950.44;;;19.45;100.00
70370;BME280;57790;51.356;-2.906;2023-07-24T14:55:36;100952.31;;;19.45;100.00
70370;BME280;57790;51.356;-2.906;2023-07-24T14:58:37;100951.44;;;19.51;100.00
70370;BME280;57790;51.356;-2.906;2023-07-24T15:01:37;100951.66;;;19.56;100.00
70370;BME280;57790;51.356;-2.906;2023-07-24T15:04:37;100947.72;;;19.58;100.00
70370;BME280;57790;51.356;-2.906;2023-07-24T15:07:38;100943.31;;;19.64;100.00
70370;BME280;57790;51.356;-2.906;2023-07-24T15:10:38;100954.06;;;19.64;100.00
70370;BME280;57790;51.356;-2.906;2023-07-24T15:13:39;100958.59;;;19.70;100.00
70370;BME280;57790;51.356;-2.906;2023-07-24T15:16:39;100951.75;;;19.74;100.00
70370;BME280;57790;51.356;-2.906;2023-07-24T15:19:39;100944.44;;;19.81;100.00
70370;BME280;57790;51.356;-2.906;2023-07-24T15:22:40;100945.66;;;19.85;100.00
70370;BME280;57790;51.356;-2.906;2023-07-24T15:25:40;100952.47;;;19.88;100.00